Time;durP1;ratioP1;P1;durP2;ratioP2;P2;SDS_P1;SDS_P2;PMS_P1;PMS_P2;Temp;Humidity;BMP_temperature;BMP_pressure;BME280_temperature;BME280_humidity;BME280_pressure;Samples;Min_cycle;Max_cycle;Signal;HPM_P1;HPM_P2
2024/01/04 00:00:01;;;;;;;12.48;2.97;;;7.00;99.90;;;;;;5040947;28;20072;-73
2024/01/04 00:02:30;;;;;;;7.00;2.05;;;6.90;99.90;;;;;;5040967;28;20054;-71
2024/01/04 00:04:56;;;;;;;10.38;1.90;;;6.80;99.90;;;;;;5041652;28;20029;-73
2024/01/04 00:07:22;;;;;;;13.23;2.22;;;6.70;99.90;;;;;;5042019;28;20516;-72
2024/01/04 00:09:48;;;;;;;8.35;2.10;;;6.70;99.90;;;;;;5041693;28;20026;-72
2024/01/04 00:12:14;;;;;;;7.43;1.73;;;6.60;99.90;;;;;;5041605;28;20047;-71
2024/01/04 00:14:40;;;;;;;11.13;2.20;;;6.60;99.90;;;;;;5041514;28;20514;-72
2024/01/04 00:17:06;;;;;;;5.70;1.60;;;6.60;99.90;;;;;;5041965;28;20029;-73
2024/01/04 00:19:32;;;;;;;6.43;1.73;;;6.60;99.90;;;;;;5041538;28;20490;-71
2024/01/04 00:21:57;;;;;;;6.93;1.90;;;6.60;99.90;;;;;;5041212;28;20028;-71
2024/01/04 00:24:23;;;;;;;9.82;2.28;;;6.50;99.90;;;;;;5041569;28;20040;-72
2024/01/04 00:26:49;;;;;;;7.55;1.90;;;6.50;99.90;;;;;;5040818;28;20029;-69
2024/01/04 00:29:14;;;;;;;5.75;2.00;;;6.40;99.90;;;;;;5038828;28;20026;-73
2024/01/04 00:31:41;;;;;;;6.25;1.80;;;6.50;99.90;;;;;;5040012;28;20025;-71
2024/01/04 00:34:07;;;;;;;7.25;1.75;;;6.50;99.90;;;;;;5041179;28;20030;-70
2024/01/04 00:36:32;;;;;;;3.75;1.50;;;6.40;99.90;;;;;;5041049;28;20036;-73
2024/01/04 00:38:58;;;;;;;7.03;1.35;;;6.40;99.90;;;;;;5041024;28;20055;-71
2024/01/04 00:41:23;;;;;;;6.32;1.58;;;6.30;99.90;;;;;;5040363;28;20034;-73
2024/01/04 00:43:49;;;;;;;4.40;1.50;;;6.20;99.90;;;;;;5041302;28;20029;-72
2024/01/04 00:46:15;;;;;;;5.32;1.58;;;6.20;99.90;;;;;;5041207;28;20131;-72
2024/01/04 00:48:41;;;;;;;2.85;1.40;;;6.10;99.90;;;;;;5040128;28;20076;-71
2024/01/04 00:51:06;;;;;;;5.72;1.40;;;6.10;99.90;;;;;;5039602;28;20030;-69
2024/01/04 00:53:32;;;;;;;2.95;1.33;;;6.00;99.90;;;;;;5039621;28;20097;-70
2024/01/04 00:55:58;;;;;;;3.70;1.23;;;6.00;99.90;;;;;;5039006;28;20033;-73
2024/01/04 00:58:23;;;;;;;7.88;1.90;;;5.90;99.90;;;;;;5040508;28;20021;-72
2024/01/04 01:00:49;;;;;;;3.45;1.35;;;5.90;99.90;;;;;;5039944;28;20029;-72
2024/01/04 01:03:14;;;;;;;5.07;1.40;;;5.80;99.90;;;;;;5039899;28;20136;-70
2024/01/04 01:05:40;;;;;;;8.80;1.80;;;5.80;99.90;;;;;;5040035;28;20384;-71
2024/01/04 01:08:06;;;;;;;9.30;1.60;;;5.80;99.90;;;;;;5040419;28;20026;-72
2024/01/04 01:10:34;;;;;;;5.32;1.38;;;5.80;99.90;;;;;;5040356;28;20029;-71
2024/01/04 01:13:00;;;;;;;6.10;1.30;;;5.80;99.90;;;;;;5039591;28;20081;-71
2024/01/04 01:15:25;;;;;;;6.50;1.73;;;5.80;99.90;;;;;;5040277;28;20036;-72
2024/01/04 01:17:51;;;;;;;3.60;1.30;;;5.80;99.90;;;;;;5040498;28;20037;-70
2024/01/04 01:20:17;;;;;;;5.65;1.63;;;5.70;99.90;;;;;;5040785;28;20033;-72
2024/01/04 01:22:42;;;;;;;9.95;2.05;;;5.70;99.90;;;;;;5039957;28;20032;-71
2024/01/04 01:25:08;;;;;;;8.88;2.08;;;5.80;99.90;;;;;;5040224;28;20026;-71
2024/01/04 01:27:34;;;;;;;3.40;1.50;;;5.70;99.90;;;;;;5038943;28;20095;-73
2024/01/04 01:30:00;;;;;;;8.13;1.50;;;5.60;99.90;;;;;;5038903;28;20037;-71
2024/01/04 01:32:25;;;;;;;5.15;1.27;;;5.70;99.90;;;;;;5040178;28;20041;-71
2024/01/04 01:34:52;;;;;;;4.65;1.10;;;5.70;99.90;;;;;;5040041;28;20041;-71
2024/01/04 01:37:17;;;;;;;2.22;1.20;;;5.60;99.90;;;;;;5040313;28;20116;-72
2024/01/04 01:39:43;;;;;;;4.53;1.13;;;5.60;99.90;;;;;;5039075;28;21102;-69
2024/01/04 01:42:09;;;;;;;1.90;0.90;;;5.60;99.90;;;;;;5040128;28;20032;-70
2024/01/04 01:44:34;;;;;;;4.97;1.20;;;5.60;99.90;;;;;;5038005;28;20690;-72
2024/01/04 01:47:00;;;;;;;3.97;0.80;;;5.50;99.90;;;;;;5039130;28;20036;-72
2024/01/04 01:49:26;;;;;;;2.15;0.80;;;5.70;99.90;;;;;;5039628;28;20029;-73
2024/01/04 01:51:53;;;;;;;5.78;1.05;;;5.60;99.90;;;;;;5039840;28;20056;-71
2024/01/04 01:54:18;;;;;;;5.47;1.08;;;5.60;99.90;;;;;;5038742;28;20033;-72
2024/01/04 01:56:44;;;;;;;1.58;0.70;;;5.60;99.90;;;;;;5039791;28;20105;-70
2024/01/04 01:59:10;;;;;;;6.55;0.68;;;5.70;99.90;;;;;;5039100;28;20029;-72
2024/01/04 02:01:36;;;;;;;2.60;0.60;;;5.50;99.90;;;;;;5037505;28;20092;-70
2024/01/04 02:04:02;;;;;;;0.73;0.50;;;5.50;99.90;;;;;;5039021;28;20068;-73
2024/01/04 02:06:27;;;;;;;9.27;1.00;;;5.50;99.90;;;;;;5038637;28;20039;-71
2024/01/04 02:08:53;;;;;;;2.42;0.52;;;5.50;99.90;;;;;;5039206;28;20044;-71
2024/01/04 02:11:18;;;;;;;3.03;0.60;;;5.60;99.90;;;;;;5038965;28;20041;-72
2024/01/04 02:13:44;;;;;;;2.38;0.50;;;5.50;99.90;;;;;;5038970;28;20137;-70
2024/01/04 02:16:09;;;;;;;5.35;0.90;;;5.50;99.90;;;;;;5037485;28;20041;-72
2024/01/04 02:18:35;;;;;;;4.47;0.80;;;5.50;99.90;;;;;;5039343;28;20025;-71
2024/01/04 02:21:01;;;;;;;2.47;0.75;;;5.40;99.90;;;;;;5038399;28;20053;-71
2024/01/04 02:23:27;;;;;;;2.83;0.73;;;5.40;99.90;;;;;;5039347;28;20049;-72
2024/01/04 02:25:53;;;;;;;3.58;0.77;;;5.40;99.90;;;;;;5036840;28;20032;-72
2024/01/04 02:28:19;;;;;;;4.18;1.00;;;5.30;99.90;;;;;;5038305;28;20018;-71
2024/01/04 02:30:45;;;;;;;2.58;0.70;;;5.50;99.90;;;;;;5038868;28;20075;-72
2024/01/04 02:33:12;;;;;;;6.25;1.35;;;5.40;99.90;;;;;;5038726;28;20388;-72
2024/01/04 02:35:37;;;;;;;3.35;0.65;;;5.30;99.90;;;;;;5038699;28;20049;-73
2024/01/04 02:38:03;;;;;;;1.55;0.50;;;5.30;99.90;;;;;;5039050;28;20195;-71
2024/01/04 02:40:30;;;;;;;4.25;0.82;;;5.30;99.90;;;;;;5038705;28;20068;-74
2024/01/04 02:42:55;;;;;;;3.60;0.70;;;5.30;99.90;;;;;;5035677;28;20120;-71
2024/01/04 02:45:21;;;;;;;3.90;0.75;;;5.30;99.90;;;;;;5035779;28;20052;-70
2024/01/04 02:47:47;;;;;;;2.05;0.65;;;5.40;99.90;;;;;;5038023;28;20029;-71
2024/01/04 02:50:13;;;;;;;2.88;0.85;;;5.20;99.90;;;;;;5038160;28;20048;-73
2024/01/04 02:52:38;;;;;;;2.28;1.00;;;5.10;99.90;;;;;;5037350;28;20014;-71
2024/01/04 02:55:04;;;;;;;2.25;1.00;;;5.10;99.90;;;;;;5037421;28;20033;-71
2024/01/04 02:57:29;;;;;;;4.50;1.02;;;5.10;99.90;;;;;;5038805;28;20042;-71
2024/01/04 02:59:55;;;;;;;1.85;0.73;;;5.10;99.90;;;;;;5039001;28;20065;-74
2024/01/04 03:02:21;;;;;;;3.53;0.70;;;5.00;99.90;;;;;;5037504;28;20052;-71
2024/01/04 03:04:46;;;;;;;1.77;0.60;;;4.90;99.90;;;;;;5036956;28;20032;-71
2024/01/04 03:07:12;;;;;;;0.75;0.40;;;4.80;99.90;;;;;;5038929;28;20025;-71
2024/01/04 03:09:38;;;;;;;3.50;0.52;;;4.80;99.90;;;;;;5036691;28;20048;-69
2024/01/04 03:12:05;;;;;;;1.15;0.40;;;4.70;99.90;;;;;;5052809;28;20032;-70
2024/01/04 03:14:30;;;;;;;1.60;0.50;;;4.70;99.90;;;;;;5038528;28;20028;-71
2024/01/04 03:16:56;;;;;;;2.03;0.63;;;4.60;99.90;;;;;;5035954;28;20034;-72
2024/01/04 03:19:22;;;;;;;1.33;0.60;;;4.60;99.90;;;;;;5038528;28;20107;-69
2024/01/04 03:21:47;;;;;;;1.30;0.70;;;4.60;99.90;;;;;;5038475;28;20060;-71
2024/01/04 03:24:13;;;;;;;2.60;0.63;;;4.60;99.90;;;;;;5038282;28;20107;-70
2024/01/04 03:26:39;;;;;;;3.20;0.77;;;4.50;99.90;;;;;;5038739;28;20043;-71
2024/01/04 03:29:04;;;;;;;2.85;0.90;;;4.50;99.90;;;;;;5036320;28;20068;-69
2024/01/04 03:31:30;;;;;;;2.55;0.95;;;4.50;99.90;;;;;;5038994;28;20125;-71
2024/01/04 03:33:55;;;;;;;3.90;0.80;;;4.40;99.90;;;;;;5039607;28;20060;-71
2024/01/04 03:36:21;;;;;;;2.50;0.90;;;4.50;99.90;;;;;;5039091;28;20038;-72
2024/01/04 03:38:47;;;;;;;1.40;0.70;;;4.50;99.90;;;;;;5039083;28;20028;-70
2024/01/04 03:41:13;;;;;;;5.32;1.15;;;4.50;99.90;;;;;;5039350;28;20033;-71
2024/01/04 03:43:38;;;;;;;4.18;1.08;;;4.40;99.90;;;;;;5037979;28;20055;-70
2024/01/04 03:46:05;;;;;;;6.43;1.23;;;4.40;99.90;;;;;;5037858;28;20041;-69
2024/01/04 03:48:31;;;;;;;4.65;1.17;;;4.40;99.90;;;;;;5039336;28;20057;-70
2024/01/04 03:50:57;;;;;;;3.90;1.10;;;4.40;99.90;;;;;;5037583;28;20033;-70
2024/01/04 03:53:23;;;;;;;2.75;1.13;;;4.40;99.90;;;;;;5038406;28;20457;-74
2024/01/04 03:55:48;;;;;;;3.70;1.02;;;4.40;99.90;;;;;;5037221;28;20051;-68
2024/01/04 03:58:14;;;;;;;3.60;1.25;;;4.40;99.90;;;;;;5037702;28;20093;-70
2024/01/04 04:00:39;;;;;;;5.38;1.20;;;4.30;99.90;;;;;;5036666;28;20517;-69
2024/01/04 04:03:05;;;;;;;3.63;1.15;;;4.30;99.90;;;;;;5038346;28;20101;-71
2024/01/04 04:05:30;;;;;;;5.47;1.15;;;4.30;99.90;;;;;;5041502;28;20048;-70
2024/01/04 04:07:56;;;;;;;3.95;0.85;;;4.40;99.90;;;;;;5042067;28;20052;-72
2024/01/04 04:10:22;;;;;;;5.28;1.08;;;4.20;99.90;;;;;;5042871;28;20030;-72
2024/01/04 04:12:48;;;;;;;1.98;0.70;;;4.20;99.90;;;;;;5042398;28;20022;-70
2024/01/04 04:15:14;;;;;;;3.25;1.00;;;4.20;99.90;;;;;;5042635;28;20025;-69
2024/01/04 04:17:39;;;;;;;4.95;1.23;;;4.20;99.90;;;;;;5042509;28;21048;-69
2024/01/04 04:20:05;;;;;;;1.88;0.63;;;4.20;99.90;;;;;;5042394;28;20040;-69
2024/01/04 04:22:31;;;;;;;5.60;1.45;;;4.20;99.90;;;;;;5042305;28;20026;-70
2024/01/04 04:24:56;;;;;;;4.38;1.40;;;4.20;99.90;;;;;;5042093;28;20037;-71
2024/01/04 04:27:22;;;;;;;4.07;1.02;;;4.20;99.90;;;;;;5041215;28;20121;-72
2024/01/04 04:29:47;;;;;;;2.28;0.70;;;4.10;99.90;;;;;;5042348;28;20032;-70
2024/01/04 04:32:13;;;;;;;2.55;0.80;;;4.10;99.90;;;;;;5040994;28;20112;-70
2024/01/04 04:34:38;;;;;;;1.80;0.82;;;4.00;99.90;;;;;;5041104;28;20032;-71
2024/01/04 04:37:05;;;;;;;2.53;0.82;;;4.00;99.90;;;;;;5041199;28;20486;-74
2024/01/04 04:39:30;;;;;;;4.18;0.82;;;3.90;99.90;;;;;;5040996;28;20095;-68
2024/01/04 04:41:58;;;;;;;4.75;0.90;;;3.90;99.90;;;;;;5041625;28;20478;-71
2024/01/04 04:44:23;;;;;;;7.70;0.80;;;3.90;99.90;;;;;;5042220;28;20112;-71
2024/01/04 04:46:49;;;;;;;6.55;1.05;;;3.90;99.90;;;;;;5040270;28;20049;-70
2024/01/04 04:49:14;;;;;;;4.53;0.90;;;3.90;99.90;;;;;;5041985;28;20036;-70
2024/01/04 04:51:40;;;;;;;5.80;1.02;;;3.90;99.90;;;;;;5041179;28;20030;-71
2024/01/04 04:54:06;;;;;;;8.45;1.10;;;3.90;99.90;;;;;;5040074;28;20043;-71
2024/01/04 04:56:31;;;;;;;2.97;0.70;;;3.90;99.90;;;;;;5041765;28;20065;-71
2024/01/04 04:58:57;;;;;;;3.47;1.20;;;3.90;99.90;;;;;;5040347;28;20021;-71
2024/01/04 05:01:22;;;;;;;5.50;0.93;;;3.80;99.90;;;;;;5041596;28;20021;-71
2024/01/04 05:03:48;;;;;;;4.25;1.02;;;3.80;99.90;;;;;;5041572;28;20394;-71
2024/01/04 05:06:13;;;;;;;4.38;0.98;;;3.80;99.90;;;;;;5041595;28;20029;-71
2024/01/04 05:08:39;;;;;;;4.03;1.00;;;3.80;99.90;;;;;;5041047;28;20029;-70
2024/01/04 05:11:06;;;;;;;5.75;1.17;;;3.70;99.90;;;;;;5041260;28;20093;-71
2024/01/04 05:13:32;;;;;;;6.38;1.20;;;3.70;99.90;;;;;;5037862;28;20021;-70
2024/01/04 05:15:58;;;;;;;5.43;1.30;;;3.70;99.90;;;;;;5040610;28;20051;-70
2024/01/04 05:18:24;;;;;;;3.65;1.00;;;3.70;99.90;;;;;;5041597;28;20132;-70
2024/01/04 05:20:49;;;;;;;2.47;1.00;;;3.70;99.90;;;;;;5040249;28;20047;-70
2024/01/04 05:23:15;;;;;;;6.25;1.20;;;3.60;99.90;;;;;;5041118;28;20087;-70
2024/01/04 05:25:40;;;;;;;4.25;1.30;;;3.60;99.90;;;;;;5039238;28;20041;-69
2024/01/04 05:28:06;;;;;;;4.07;1.35;;;3.50;99.90;;;;;;5040037;28;20478;-70
2024/01/04 05:30:32;;;;;;;4.95;1.15;;;3.50;99.90;;;;;;5039754;28;20030;-68
2024/01/04 05:32:57;;;;;;;5.82;1.13;;;3.40;99.90;;;;;;5041055;28;20152;-70
2024/01/04 05:35:23;;;;;;;6.97;1.13;;;3.40;99.90;;;;;;5039883;28;20041;-69
2024/01/04 05:37:49;;;;;;;6.05;1.00;;;3.40;99.90;;;;;;5040158;28;20021;-69
2024/01/04 05:40:15;;;;;;;3.67;1.15;;;3.40;99.90;;;;;;5037190;28;20037;-69
2024/01/04 05:42:41;;;;;;;2.20;0.90;;;3.40;99.90;;;;;;5038644;28;20021;-69
2024/01/04 05:45:07;;;;;;;1.48;0.90;;;3.30;99.90;;;;;;5039216;28;20076;-68
2024/01/04 05:47:33;;;;;;;2.13;1.17;;;3.30;99.90;;;;;;5040857;28;20025;-72
2024/01/04 05:49:58;;;;;;;4.93;0.70;;;3.30;99.90;;;;;;5037365;28;20026;-69
2024/01/04 05:52:25;;;;;;;5.65;0.80;;;3.20;99.90;;;;;;5040755;28;20025;-72
2024/01/04 05:54:50;;;;;;;2.88;0.70;;;3.20;99.90;;;;;;5038382;28;20033;-69
2024/01/04 05:57:19;;;;;;;4.40;0.98;;;3.20;99.90;;;;;;5036894;28;20459;-69
2024/01/04 05:59:45;;;;;;;3.63;0.82;;;3.20;99.90;;;;;;5038473;28;20037;-71
2024/01/04 06:02:10;;;;;;;7.00;0.98;;;3.30;99.90;;;;;;5037860;28;20036;-69
2024/01/04 06:04:36;;;;;;;4.32;1.17;;;3.20;99.90;;;;;;5039115;28;20036;-70
2024/01/04 06:07:01;;;;;;;3.55;1.10;;;3.30;99.90;;;;;;5036298;28;20029;-70
2024/01/04 06:09:27;;;;;;;4.10;0.93;;;3.20;99.90;;;;;;5039054;28;20029;-69
2024/01/04 06:11:52;;;;;;;2.03;0.98;;;3.20;99.90;;;;;;5037983;28;20060;-70
2024/01/04 06:14:19;;;;;;;4.90;1.00;;;3.20;99.90;;;;;;5038817;28;20021;-69
2024/01/04 06:16:45;;;;;;;2.97;0.88;;;3.20;99.90;;;;;;5039261;28;20087;-69
2024/01/04 06:19:10;;;;;;;4.70;1.08;;;3.30;99.90;;;;;;5038912;28;20029;-70
2024/01/04 06:21:37;;;;;;;1.48;0.82;;;3.30;99.90;;;;;;5039954;28;20025;-70
2024/01/04 06:24:03;;;;;;;4.47;1.05;;;3.30;99.90;;;;;;5040019;28;20028;-71
2024/01/04 06:26:29;;;;;;;1.85;1.10;;;3.30;99.90;;;;;;5038777;28;20025;-69
2024/01/04 06:28:54;;;;;;;4.88;1.23;;;3.20;99.90;;;;;;5035181;28;20041;-70
2024/01/04 06:31:20;;;;;;;2.90;1.08;;;3.10;99.90;;;;;;5039283;28;20055;-69
2024/01/04 06:33:46;;;;;;;3.97;1.00;;;3.00;99.90;;;;;;5038036;28;20057;-69
2024/01/04 06:36:11;;;;;;;2.90;0.90;;;3.00;99.90;;;;;;5038826;28;20132;-68
2024/01/04 06:38:37;;;;;;;5.30;1.17;;;3.00;99.90;;;;;;5036360;28;20486;-68
2024/01/04 06:41:04;;;;;;;3.35;1.20;;;2.90;99.90;;;;;;5038952;28;20033;-67
2024/01/04 06:43:30;;;;;;;4.55;1.13;;;2.90;99.90;;;;;;5036993;28;20082;-68
2024/01/04 06:45:59;;;;;;;1.98;0.90;;;2.90;99.90;;;;;;5037326;28;20045;-67
2024/01/04 06:48:25;;;;;;;2.88;1.10;;;2.80;99.90;;;;;;5039708;28;20040;-68
2024/01/04 06:50:50;;;;;;;7.00;1.40;;;2.80;99.90;;;;;;5039892;28;20017;-68
2024/01/04 06:53:16;;;;;;;3.45;1.30;;;2.80;99.90;;;;;;5037253;28;20040;-68
2024/01/04 06:55:42;;;;;;;2.28;1.15;;;2.80;99.90;;;;;;5039772;28;20072;-68
2024/01/04 06:58:10;;;;;;;5.97;1.40;;;2.80;99.90;;;;;;5038503;28;20943;-68
2024/01/04 07:00:36;;;;;;;4.05;1.30;;;2.70;99.90;;;;;;5035610;28;20126;-68
2024/01/04 07:03:03;;;;;;;4.63;1.20;;;2.70;99.90;;;;;;5037278;28;20518;-68
2024/01/04 07:05:29;;;;;;;2.40;1.25;;;2.70;99.90;;;;;;5037550;28;20048;-69
2024/01/04 07:07:54;;;;;;;6.88;1.02;;;2.80;99.90;;;;;;5039167;28;20022;-68
2024/01/04 07:10:20;;;;;;;4.15;1.17;;;2.70;99.90;;;;;;5038873;28;20092;-68
2024/01/04 07:12:47;;;;;;;5.32;1.17;;;2.70;99.90;;;;;;5038002;28;20021;-68
2024/01/04 07:15:13;;;;;;;4.57;1.27;;;2.80;99.90;;;;;;5039417;28;20156;-67
2024/01/04 07:17:39;;;;;;;3.60;1.10;;;2.80;99.90;;;;;;5039404;28;20049;-69
2024/01/04 07:20:05;;;;;;;3.03;1.75;;;2.70;99.90;;;;;;5038368;28;20029;-68
2024/01/04 07:22:31;;;;;;;4.85;1.42;;;2.80;99.90;;;;;;5038078;28;20014;-68
2024/01/04 07:24:56;;;;;;;4.93;1.33;;;2.70;99.90;;;;;;5038334;28;20021;-69
2024/01/04 07:27:22;;;;;;;4.97;1.30;;;2.70;99.90;;;;;;5039209;28;20022;-70
2024/01/04 07:29:48;;;;;;;5.72;1.30;;;2.70;99.90;;;;;;5037876;28;20116;-67
2024/01/04 07:32:18;;;;;;;3.28;1.35;;;2.70;99.90;;;;;;5037659;28;20057;-68
2024/01/04 07:34:46;;;;;;;5.53;1.88;;;2.70;99.90;;;;;;5038614;28;20022;-69
2024/01/04 07:37:11;;;;;;;3.35;1.40;;;2.80;99.90;;;;;;5038443;28;20049;-67
2024/01/04 07:39:37;;;;;;;8.27;1.67;;;2.70;99.90;;;;;;5038265;28;20034;-69
2024/01/04 07:42:03;;;;;;;4.45;1.60;;;2.70;99.90;;;;;;5038992;28;20097;-69
2024/01/04 07:44:28;;;;;;;6.55;1.85;;;2.70;99.90;;;;;;5040483;28;20032;-67
2024/01/04 07:46:54;;;;;;;6.22;1.88;;;2.70;99.90;;;;;;5041009;28;20553;-69
2024/01/04 07:49:20;;;;;;;6.57;1.60;;;2.70;99.90;;;;;;5038819;28;20116;-68
2024/01/04 07:51:45;;;;;;;5.10;1.90;;;2.70;99.90;;;;;;5033585;28;20044;-68
2024/01/04 07:54:11;;;;;;;6.32;1.70;;;2.70;99.90;;;;;;5040063;28;20072;-69
2024/01/04 07:56:38;;;;;;;4.82;1.63;;;2.70;99.90;;;;;;5037541;28;20049;-69
2024/01/04 07:59:03;;;;;;;3.20;1.70;;;2.80;99.90;;;;;;5055133;28;20041;-69
2024/01/04 08:01:29;;;;;;;5.22;1.70;;;2.70;99.90;;;;;;5037822;28;20359;-66
2024/01/04 08:03:55;;;;;;;5.45;1.80;;;2.70;99.90;;;;;;5037098;28;20144;-67
2024/01/04 08:06:20;;;;;;;9.07;1.92;;;2.70;99.90;;;;;;5039854;28;20034;-68
2024/01/04 08:08:46;;;;;;;5.63;1.70;;;2.70;99.90;;;;;;5038799;28;20100;-69
2024/01/04 08:11:11;;;;;;;4.20;1.42;;;2.80;99.90;;;;;;5038462;28;20033;-68
2024/01/04 08:13:37;;;;;;;4.68;1.63;;;2.80;99.90;;;;;;5037951;28;20040;-68
2024/01/04 08:16:03;;;;;;;6.95;1.60;;;2.80;99.90;;;;;;5038199;28;20053;-68
2024/01/04 08:18:29;;;;;;;3.30;1.50;;;2.80;99.90;;;;;;5039675;28;20034;-68
2024/01/04 08:20:55;;;;;;;4.35;1.60;;;2.80;99.90;;;;;;5038559;28;20033;-67
2024/01/04 08:23:20;;;;;;;4.78;1.67;;;2.80;99.90;;;;;;5038393;28;20025;-68
2024/01/04 08:25:46;;;;;;;5.60;1.60;;;2.80;99.90;;;;;;5038999;28;20446;-68
2024/01/04 08:28:12;;;;;;;4.15;1.70;;;2.80;99.90;;;;;;5039073;28;20089;-69
2024/01/04 08:30:38;;;;;;;5.18;1.63;;;2.90;99.90;;;;;;5040978;28;20034;-68
2024/01/04 08:33:03;;;;;;;4.22;1.65;;;2.80;99.90;;;;;;5039506;28;20029;-69
2024/01/04 08:35:29;;;;;;;5.75;1.67;;;2.80;99.90;;;;;;5039809;28;20033;-69
2024/01/04 08:37:54;;;;;;;4.15;1.77;;;2.80;99.90;;;;;;5037092;28;20022;-68
2024/01/04 08:40:20;;;;;;;5.80;1.48;;;2.70;99.90;;;;;;5040686;28;20060;-69
2024/01/04 08:42:46;;;;;;;6.20;1.60;;;2.70;99.90;;;;;;5041235;28;20592;-68
2024/01/04 08:45:11;;;;;;;4.55;1.70;;;2.70;99.90;;;;;;5041013;28;20033;-69
2024/01/04 08:47:38;;;;;;;2.88;1.38;;;2.70;99.90;;;;;;5040407;28;20017;-69
2024/01/04 08:50:04;;;;;;;3.35;1.60;;;2.80;99.90;;;;;;5038608;28;20057;-69
2024/01/04 08:52:30;;;;;;;6.30;1.70;;;2.90;99.90;;;;;;5039163;28;20112;-70
2024/01/04 08:54:56;;;;;;;4.65;1.90;;;2.90;99.90;;;;;;5039794;28;20044;-68
2024/01/04 08:57:22;;;;;;;4.70;1.80;;;2.90;99.90;;;;;;5040927;28;20037;-70
2024/01/04 08:59:48;;;;;;;3.78;1.70;;;3.00;99.90;;;;;;5039395;28;20017;-71
2024/01/04 09:02:14;;;;;;;6.50;1.92;;;3.00;99.90;;;;;;5037325;28;20040;-69
2024/01/04 09:04:40;;;;;;;4.68;1.60;;;3.00;99.90;;;;;;5038743;28;20030;-70
2024/01/04 09:07:07;;;;;;;3.88;1.77;;;3.00;99.90;;;;;;5038066;28;20022;-68
2024/01/04 09:09:32;;;;;;;4.70;1.50;;;2.90;99.90;;;;;;5039192;28;20120;-68
2024/01/04 09:11:58;;;;;;;4.82;1.80;;;2.90;99.90;;;;;;5033856;28;20057;-69
2024/01/04 09:14:23;;;;;;;5.55;2.78;;;2.90;99.90;;;;;;5038618;28;20021;-69
2024/01/04 09:16:49;;;;;;;3.97;1.85;;;2.90;99.90;;;;;;5041277;28;20034;-70
2024/01/04 09:19:15;;;;;;;3.67;1.90;;;2.90;99.90;;;;;;5029961;28;20022;-70
2024/01/04 09:21:49;;;;;;;4.43;2.10;;;2.80;99.90;;;;;;5038085;28;20025;-69
2024/01/04 09:24:15;;;;;;;5.60;2.25;;;2.80;99.90;;;;;;5035934;28;20036;-68
2024/01/04 09:26:42;;;;;;;5.32;2.13;;;2.80;99.90;;;;;;5033154;28;20038;-68
2024/01/04 09:29:08;;;;;;;4.95;2.30;;;2.90;99.90;;;;;;5039445;28;20037;-69
2024/01/04 09:31:34;;;;;;;4.80;2.30;;;2.90;99.90;;;;;;5039458;28;20095;-69
2024/01/04 09:33:59;;;;;;;7.93;2.60;;;2.90;99.90;;;;;;5035320;28;20378;-69
2024/01/04 09:36:25;;;;;;;5.25;2.45;;;2.90;99.90;;;;;;5040546;28;20036;-69
2024/01/04 09:38:51;;;;;;;7.50;2.88;;;2.90;99.90;;;;;;5040533;28;20029;-68
2024/01/04 09:41:26;;;;;;;6.57;2.60;;;3.00;99.90;;;;;;5040890;28;20358;-69
2024/01/04 09:44:05;;;;;;;8.07;2.55;;;3.00;99.90;;;;;;5036992;28;20118;-70
2024/01/04 09:46:36;;;;;;;7.43;3.25;;;3.00;99.90;;;;;;5036666;28;20035;-69
2024/01/04 09:49:03;;;;;;;9.02;4.25;;;3.00;99.90;;;;;;5039025;28;20025;-67
2024/01/04 09:51:30;;;;;;;7.38;2.97;;;3.00;99.90;;;;;;5035324;28;20056;-69
2024/01/04 09:53:56;;;;;;;15.20;6.50;;;3.00;99.90;;;;;;5031063;28;20025;-69
2024/01/04 09:56:24;;;;;;;17.52;6.30;;;3.00;99.90;;;;;;5037990;28;20041;-69
2024/01/04 09:58:50;;;;;;;10.93;4.07;;;3.00;99.90;;;;;;5038760;28;20014;-68
2024/01/04 10:01:23;;;;;;;9.77;3.33;;;3.10;99.90;;;;;;5030580;28;20075;-69
2024/01/04 10:03:50;;;;;;;10.45;3.60;;;3.10;99.90;;;;;;5038652;28;20084;-70
2024/01/04 10:06:29;;;;;;;7.22;3.50;;;3.10;99.90;;;;;;5038584;28;20033;-69
2024/01/04 10:09:21;;;;;;;9.18;3.13;;;3.10;99.90;;;;;;5035457;28;20105;-69
2024/01/04 10:12:07;;;;;;;7.25;2.97;;;3.00;99.90;;;;;;5035406;28;20034;-68
2024/01/04 10:14:33;;;;;;;10.77;3.20;;;3.00;99.90;;;;;;5035768;28;20470;-69
2024/01/04 10:16:59;;;;;;;7.22;3.10;;;3.00;99.90;;;;;;5034392;28;20038;-69
2024/01/04 10:19:26;;;;;;;12.68;3.80;;;3.00;99.90;;;;;;5037590;28;20140;-70
2024/01/04 10:21:52;;;;;;;4.45;2.70;;;3.00;99.90;;;;;;5038459;28;20025;-69
2024/01/04 10:24:22;;;;;;;8.10;3.10;;;3.00;99.90;;;;;;5038013;28;20175;-68
2024/01/04 10:26:58;;;;;;;9.07;3.67;;;3.00;99.90;;;;;;5035006;28;20037;-68
2024/01/04 10:29:27;;;;;;;10.90;3.10;;;3.10;99.90;;;;;;5036715;28;20119;-69
2024/01/04 10:32:00;;;;;;;6.93;3.30;;;3.10;99.90;;;;;;5038033;28;20014;-69
2024/01/04 10:34:26;;;;;;;6.25;2.80;;;3.20;99.90;;;;;;5034008;28;20025;-70
2024/01/04 10:36:54;;;;;;;5.60;2.72;;;3.20;99.90;;;;;;5037415;28;20029;-69
2024/01/04 10:39:20;;;;;;;5.72;2.55;;;3.20;99.90;;;;;;5036278;28;20029;-69
2024/01/04 10:42:02;;;;;;;7.05;2.20;;;3.10;99.90;;;;;;5036245;28;20138;-67
2024/01/04 10:44:28;;;;;;;10.57;2.60;;;3.10;99.90;;;;;;5037568;28;20060;-70
2024/01/04 10:46:59;;;;;;;7.40;2.55;;;3.10;99.90;;;;;;5036880;28;20033;-68
2024/01/04 10:49:25;;;;;;;6.10;2.90;;;3.20;99.90;;;;;;5036544;28;20041;-69
2024/01/04 10:51:57;;;;;;;7.55;2.67;;;3.30;99.90;;;;;;5037879;28;20025;-68
2024/01/04 10:54:32;;;;;;;10.88;3.00;;;3.40;99.90;;;;;;5038616;28;20033;-68
2024/01/04 10:57:02;;;;;;;6.90;2.88;;;3.60;99.90;;;;;;5039472;28;20080;-69
2024/01/04 10:59:32;;;;;;;7.32;2.75;;;3.60;99.90;;;;;;5033493;28;20053;-69
2024/01/04 11:01:59;;;;;;;6.10;2.63;;;3.70;99.90;;;;;;5036530;28;20071;-69
2024/01/04 11:04:26;;;;;;;5.80;2.35;;;3.80;99.90;;;;;;5037830;28;20053;-67
2024/01/04 11:06:52;;;;;;;2.63;1.85;;;4.20;99.90;;;;;;5038406;28;20053;-67
2024/01/04 11:09:19;;;;;;;7.20;1.58;;;4.60;99.90;;;;;;5036925;28;20035;-66
2024/01/04 11:11:46;;;;;;;4.68;1.88;;;5.10;99.90;;;;;;5035652;28;20034;-67
2024/01/04 11:14:11;;;;;;;9.98;1.98;;;5.40;99.90;;;;;;5041399;28;20116;-67
2024/01/04 11:17:01;;;;;;;4.72;2.08;;;5.40;99.90;;;;;;5040083;28;20072;-67
2024/01/04 11:19:33;;;;;;;4.55;1.70;;;5.10;99.90;;;;;;5037548;28;20038;-67
2024/01/04 11:22:21;;;;;;;5.18;1.73;;;4.80;99.90;;;;;;5041795;28;20041;-68
2024/01/04 11:24:56;;;;;;;3.92;1.73;;;4.60;99.90;;;;;;5038485;28;20056;-69
2024/01/04 11:27:23;;;;;;;5.82;1.80;;;4.70;99.90;;;;;;5040819;28;20041;-68
2024/01/04 11:29:49;;;;;;;4.32;1.60;;;5.10;99.90;;;;;;5040377;28;20051;-70
2024/01/04 11:32:16;;;;;;;3.85;1.60;;;5.10;99.90;;;;;;5037446;28;20112;-68
2024/01/04 11:34:44;;;;;;;4.22;1.60;;;5.10;99.90;;;;;;5038758;28;20029;-68
2024/01/04 11:37:20;;;;;;;6.32;1.70;;;5.20;99.90;;;;;;5039924;28;20046;-68
2024/01/04 11:40:03;;;;;;;6.05;1.98;;;5.50;99.90;;;;;;5038059;28;20069;-68
2024/01/04 11:42:39;;;;;;;6.22;2.30;;;6.00;99.90;;;;;;5037384;28;20036;-69
2024/01/04 11:45:13;;;;;;;3.38;1.75;;;6.90;99.90;;;;;;5039550;28;20402;-70
2024/01/04 11:47:40;;;;;;;4.18;1.90;;;7.70;99.90;;;;;;5037205;28;20033;-69
2024/01/04 11:50:26;;;;;;;4.35;1.67;;;8.60;99.90;;;;;;5040517;28;20100;-68
2024/01/04 11:53:03;;;;;;;4.25;1.88;;;9.20;99.90;;;;;;5037985;28;20025;-68
2024/01/04 11:55:29;;;;;;;3.63;1.92;;;9.90;99.90;;;;;;5040084;28;20033;-69
2024/01/04 11:58:28;;;;;;;4.88;1.65;;;10.10;99.90;;;;;;5040236;28;20044;-69
2024/01/04 12:00:56;;;;;;;3.05;2.00;;;9.40;99.90;;;;;;5039561;28;20025;-69
2024/01/04 12:03:28;;;;;;;3.53;1.80;;;8.30;99.90;;;;;;5037077;28;20490;-71
2024/01/04 12:05:54;;;;;;;5.03;1.92;;;7.50;99.90;;;;;;5038497;28;20595;-68
2024/01/04 12:08:30;;;;;;;5.38;1.58;;;6.90;99.90;;;;;;5039647;28;20457;-70
2024/01/04 12:11:09;;;;;;;4.70;1.60;;;6.40;99.90;;;;;;5038121;28;20044;-68
2024/01/04 12:13:35;;;;;;;2.90;1.80;;;6.30;99.90;;;;;;5039325;28;20025;-68
2024/01/04 12:16:03;;;;;;;4.47;1.80;;;6.30;99.90;;;;;;5035534;28;20055;-71
2024/01/04 12:18:31;;;;;;;3.83;1.73;;;6.50;99.90;;;;;;5054965;28;20037;-70
2024/01/04 12:20:59;;;;;;;2.72;1.40;;;6.50;99.90;;;;;;5038339;28;20096;-70
2024/01/04 12:23:25;;;;;;;3.05;1.50;;;6.30;99.90;;;;;;5041211;28;20035;-69
2024/01/04 12:25:51;;;;;;;2.55;1.30;;;6.10;99.90;;;;;;5041659;28;20535;-69
2024/01/04 12:28:17;;;;;;;2.10;1.55;;;5.80;99.90;;;;;;5040858;28;20046;-67
2024/01/04 12:30:43;;;;;;;4.95;1.75;;;5.70;99.90;;;;;;5040188;28;20064;-70
2024/01/04 12:33:09;;;;;;;2.33;1.35;;;5.40;99.90;;;;;;5041053;28;20018;-68
2024/01/04 12:35:35;;;;;;;4.20;1.83;;;5.30;99.90;;;;;;5040300;28;20047;-68
2024/01/04 12:38:02;;;;;;;4.60;1.70;;;5.30;99.90;;;;;;5040538;28;20388;-68
2024/01/04 12:40:36;;;;;;;4.60;2.08;;;5.10;99.90;;;;;;5039738;28;20033;-69
2024/01/04 12:43:03;;;;;;;9.48;2.22;;;5.00;99.90;;;;;;5039149;28;20036;-70
2024/01/04 12:45:29;;;;;;;6.20;2.00;;;4.90;99.90;;;;;;5041084;28;20033;-70
2024/01/04 12:48:05;;;;;;;6.78;2.35;;;4.80;99.90;;;;;;5039834;28;20043;-69
2024/01/04 12:50:33;;;;;;;3.80;2.28;;;4.70;99.90;;;;;;5039997;28;20033;-70
2024/01/04 12:52:59;;;;;;;5.60;2.42;;;4.50;99.90;;;;;;5040912;28;20029;-69
2024/01/04 12:55:26;;;;;;;5.38;2.25;;;4.60;99.90;;;;;;5040574;28;20768;-68